This is the latest recevied weather packets stored in our database for station/object IW1CBG-23. If no packets are shown the sender has not sent any weather packets the latest 10 day(s).
| Time | Temp. | Humidity | Pressure | Rain* | Wind** | Luminosity | Snow |
|---|---|---|---|---|---|---|---|
| 1788187574 | 23.33° C | 99% | 1014.2 hPa | - | - | - | - |
| 1788186338 | 23.33° C | 99% | 1014.2 hPa | - | - | - | - |
| 1788185099 | 24.44° C | 99% | 1014.1 hPa | - | - | - | - |
| 1788183863 | 23.89° C | 98% | 1014.2 hPa | - | - | - | - |
| 1788182627 | 23.33° C | 92% | 1014.3 hPa | - | - | - | - |
| 1788181389 | 23.33° C | 94% | 1014.4 hPa | - | - | - | - |
| 1788180154 | 24.44° C | 88% | 1014.5 hPa | - | - | - | - |
| 1788178918 | 26.11° C | 78% | 1014.4 hPa | - | - | - | - |
| 1788177685 | 26.67° C | 71% | 1014.4 hPa | - | - | - | - |
| 1788176451 | 26.67° C | 68% | 1014.5 hPa | - | - | - | - |
| 1788173983 | 27.22° C | 72% | 1014.7 hPa | - | - | - | - |
| 1788172743 | 26.67° C | 73% | 1014.8 hPa | - | - | - | - |
| 1788171499 | 26.11° C | 71% | 1014.8 hPa | - | - | - | - |
| 1788170260 | 25.56° C | 75% | 1014.9 hPa | - | - | - | - |
| 1788169019 | 26.11° C | 74% | 1015.1 hPa | - | - | - | - |
| 1788167782 | 25° C | 75% | 1015.1 hPa | - | - | - | - |
| 1788165301 | 23.33° C | 88% | 1015.1 hPa | - | - | - | - |
| 1788164063 | 21.11° C | 90% | 1015.1 hPa | - | - | - | - |
| 1788162827 | 20.56° C | 89% | 1015 hPa | - | - | - | - |
| 1788160385 | 21.67° C | 82% | 1014.5 hPa | - | - | - | - |
| 1788157905 | 21.11° C | 89% | 1014.2 hPa | - | - | - | - |
| 1788156667 | 20° C | 91% | 1014.1 hPa | - | - | - | - |
| 1788152954 | 18.89° C | 99% | 1014.2 hPa | - | - | - | - |
| 1788151716 | 18.33° C | 99% | 1014.1 hPa | - | - | - | - |
| 1788150479 | 18.33° C | 98% | 1014 hPa | - | - | - | - |
* Rain since midnight (hover to see other rain measurements)
** Current wind speed in m/s (hover to see current wind gust speed)